Time;durP1;ratioP1;P1;durP2;ratioP2;P2;SDS_P1;SDS_P2;PMS_P1;PMS_P2;Temp;Humidity;BMP_temperature;BMP_pressure;BME280_temperature;BME280_humidity;BME280_pressure;Samples;Min_cycle;Max_cycle;Signal;HPM_P1;HPM_P2
2023/04/15 00:00:10;;;;;;;0.40;0.40;;;;;;;13.43;100.00;98683.06;5030479;28;20674;-60
2023/04/15 00:02:37;;;;;;;0.50;0.50;;;;;;;13.43;100.00;98677.91;5030548;28;20259;-60
2023/04/15 00:05:05;;;;;;;0.40;0.40;;;;;;;13.46;100.00;98677.75;5018387;28;20602;-59
2023/04/15 00:07:34;;;;;;;0.50;0.50;;;;;;;13.48;100.00;98670.78;5029349;28;20751;-60
2023/04/15 00:10:03;;;;;;;0.50;0.50;;;;;;;13.43;100.00;98666.78;5021234;28;20230;-61
2023/04/15 00:12:30;;;;;;;0.47;0.47;;;;;;;13.33;100.00;98658.72;5023707;28;20297;-59
2023/04/15 00:14:57;;;;;;;0.50;0.50;;;;;;;13.16;100.00;98653.63;5015380;28;20206;-60
2023/04/15 00:17:24;;;;;;;0.60;0.60;;;;;;;13.11;100.00;98659.03;5026321;28;20233;-59
2023/04/15 00:19:51;;;;;;;0.60;0.60;;;;;;;13.14;100.00;98663.19;5027577;28;20197;-60
2023/04/15 00:22:18;;;;;;;0.40;0.40;;;;;;;13.13;100.00;98670.06;5014146;28;20711;-60
2023/04/15 00:24:46;;;;;;;0.40;0.40;;;;;;;13.08;100.00;98689.19;5024884;28;20205;-60
2023/04/15 00:27:13;;;;;;;0.47;0.47;;;;;;;12.90;100.00;98692.69;5025523;28;20209;-60
2023/04/15 00:29:40;;;;;;;0.63;0.63;;;;;;;12.92;100.00;98685.75;5017576;28;20661;-59
2023/04/15 00:32:08;;;;;;;0.50;0.50;;;;;;;12.95;100.00;98681.28;5015099;28;20590;-61
2023/04/15 00:34:34;;;;;;;0.57;0.57;;;;;;;12.92;100.00;98680.59;5014382;28;20198;-60
2023/04/15 00:37:01;;;;;;;0.70;0.70;;;;;;;12.89;100.00;98676.41;5015834;28;20194;-60
2023/04/15 00:39:28;;;;;;;0.63;0.63;;;;;;;12.75;100.00;98666.03;5028302;28;20189;-59
2023/04/15 00:41:57;;;;;;;0.47;0.47;;;;;;;12.73;100.00;98660.09;5018461;28;20195;-60
2023/04/15 00:44:24;;;;;;;0.50;0.50;;;;;;;12.72;100.00;98660.19;5019320;28;20202;-59
2023/04/15 00:46:51;;;;;;;0.50;0.50;;;;;;;12.74;100.00;98669.50;5020489;28;20234;-60
2023/04/15 00:49:18;;;;;;;1.20;1.20;;;;;;;12.67;100.00;98663.00;5019496;28;20232;-60
2023/04/15 00:51:45;;;;;;;0.80;0.80;;;;;;;12.67;100.00;98668.13;5021078;28;20261;-59
2023/04/15 00:54:12;;;;;;;0.50;0.50;;;;;;;12.69;100.00;98668.91;5025093;28;20193;-60
2023/04/15 00:56:39;;;;;;;0.43;0.43;;;;;;;12.68;100.00;98661.25;5024070;28;20210;-60
2023/04/15 00:59:08;;;;;;;0.60;0.60;;;;;;;12.68;100.00;98661.25;5019590;28;20690;-59
2023/04/15 01:01:36;;;;;;;0.67;0.67;;;;;;;12.69;100.00;98663.75;5025339;28;20209;-60
2023/04/15 01:04:03;;;;;;;0.40;0.40;;;;;;;12.69;100.00;98673.22;5024158;28;20291;-59
2023/04/15 01:06:31;;;;;;;0.40;0.40;;;;;;;12.60;100.00;98675.31;5024708;28;20201;-59
2023/04/15 01:08:58;;;;;;;0.40;0.40;;;;;;;12.41;100.00;98669.44;5023838;28;20695;-59
2023/04/15 01:11:25;;;;;;;0.50;0.50;;;;;;;12.34;100.00;98672.38;5026321;28;20198;-60
2023/04/15 01:13:52;;;;;;;0.60;0.60;;;;;;;12.36;100.00;98670.56;5028011;28;21030;-60
2023/04/15 01:16:22;;;;;;;0.40;0.40;;;;;;;12.36;100.00;98661.13;5025873;28;20197;-60
2023/04/15 01:18:49;;;;;;;0.70;0.70;;;;;;;12.41;100.00;98653.16;5027505;28;20623;-60
2023/04/15 01:21:16;;;;;;;0.50;0.50;;;;;;;12.39;100.00;98666.09;5028794;28;20256;-60
2023/04/15 01:23:46;;;;;;;0.40;0.40;;;;;;;12.29;100.00;98680.31;5026460;28;20204;-60
2023/04/15 01:26:14;;;;;;;0.47;0.47;;;;;;;12.30;100.00;98683.72;5019366;28;20744;-60
2023/04/15 01:28:41;;;;;;;0.40;0.40;;;;;;;12.31;100.00;98688.78;5024455;28;20202;-60
2023/04/15 01:31:09;;;;;;;0.50;0.50;;;;;;;12.17;99.90;98665.50;5023438;28;20202;-59
2023/04/15 01:33:36;;;;;;;0.60;0.60;;;;;;;12.23;99.66;98682.34;5022776;28;20201;-59
2023/04/15 01:36:04;;;;;;;0.50;0.50;;;;;;;12.15;98.81;98671.63;5020401;28;20209;-59
2023/04/15 01:38:32;;;;;;;0.40;0.40;;;;;;;12.14;98.66;98680.22;5023590;28;20677;-60
2023/04/15 01:40:59;;;;;;;1.00;1.00;;;;;;;12.09;98.96;98668.41;5027575;28;20287;-59
2023/04/15 01:43:27;;;;;;;0.60;0.60;;;;;;;12.07;98.71;98664.28;5021121;28;20694;-60
2023/04/15 01:45:54;;;;;;;0.50;0.50;;;;;;;12.07;98.95;98674.53;5021384;28;20224;-59
2023/04/15 01:48:21;;;;;;;0.50;0.50;;;;;;;12.02;98.50;98686.75;5025399;28;20306;-59
2023/04/15 01:50:48;;;;;;;0.40;0.40;;;;;;;11.95;98.25;98693.94;5029535;28;20213;-60
2023/04/15 01:53:15;;;;;;;0.50;0.50;;;;;;;11.77;98.77;98696.50;5028020;28;20198;-60
2023/04/15 01:55:42;;;;;;;0.40;0.40;;;;;;;11.58;100.00;98706.75;5024204;28;20581;-59
2023/04/15 01:58:09;;;;;;;0.50;0.50;;;;;;;11.43;100.00;98716.00;5026226;28;20209;-60
2023/04/15 02:00:37;;;;;;;0.60;0.60;;;;;;;11.36;100.00;98724.03;5026576;28;20202;-60
2023/04/15 02:03:05;;;;;;;0.40;0.40;;;;;;;11.31;100.00;98724.22;5024489;28;20578;-59
2023/04/15 02:05:32;;;;;;;0.40;0.40;;;;;;;11.26;100.00;98721.03;5021447;28;20201;-59
2023/04/15 02:07:59;;;;;;;0.73;0.73;;;;;;;11.18;100.00;98725.66;5025479;28;20208;-60
2023/04/15 02:10:26;;;;;;;0.57;0.57;;;;;;;11.19;100.00;98729.06;5023162;28;20282;-60
2023/04/15 02:12:53;;;;;;;0.50;0.50;;;;;;;11.17;100.00;98734.25;5028212;28;20208;-59
2023/04/15 02:15:20;;;;;;;0.57;0.57;;;;;;;11.05;100.00;98707.38;5025371;28;20206;-59
2023/04/15 02:17:49;;;;;;;0.60;0.60;;;;;;;11.17;100.00;98715.47;5025641;28;20201;-59
2023/04/15 02:20:17;;;;;;;0.40;0.40;;;;;;;11.06;100.00;98696.25;5022257;28;20190;-59
2023/04/15 02:22:43;;;;;;;0.40;0.40;;;;;;;11.24;100.00;98710.00;5021737;28;20241;-60
2023/04/15 02:25:10;;;;;;;0.50;0.50;;;;;;;11.21;100.00;98706.75;5022238;28;20194;-60
2023/04/15 02:27:37;;;;;;;0.50;0.50;;;;;;;11.24;100.00;98704.88;5024802;28;20336;-59
2023/04/15 02:30:06;;;;;;;0.60;0.60;;;;;;;11.21;100.00;98702.41;5023276;28;20217;-60
2023/04/15 02:32:32;;;;;;;0.47;0.47;;;;;;;11.18;100.00;98707.69;5023023;28;20202;-60
2023/04/15 02:35:04;;;;;;;0.60;0.60;;;;;;;11.19;100.00;98706.81;5020066;28;20206;-60
2023/04/15 02:37:34;;;;;;;0.40;0.40;;;;;;;11.23;100.00;98713.47;5025095;28;20292;-60
2023/04/15 02:40:01;;;;;;;0.63;0.63;;;;;;;11.24;100.00;98712.59;5016636;28;20585;-59
2023/04/15 02:42:29;;;;;;;0.47;0.47;;;;;;;11.30;100.00;98722.56;5022943;28;20205;-60
2023/04/15 02:44:57;;;;;;;0.57;0.57;;;;;;;11.33;100.00;98727.56;5024039;28;20272;-59
2023/04/15 02:47:23;;;;;;;0.50;0.50;;;;;;;11.32;100.00;98741.28;5018999;28;20202;-59
2023/04/15 02:49:50;;;;;;;0.60;0.60;;;;;;;11.35;99.80;98748.84;5024753;28;20244;-60
2023/04/15 02:52:18;;;;;;;0.60;0.60;;;;;;;11.31;99.81;98742.19;5022235;28;20243;-60
2023/04/15 02:54:45;;;;;;;0.53;0.53;;;;;;;11.33;99.11;98742.97;5025377;28;20198;-60
2023/04/15 02:57:12;;;;;;;0.50;0.50;;;;;;;11.33;98.70;98742.97;5024286;28;20662;-59
2023/04/15 02:59:38;;;;;;;0.50;0.50;;;;;;;11.34;98.63;98736.09;5023188;28;20190;-59
2023/04/15 03:02:06;;;;;;;0.60;0.60;;;;;;;11.34;98.02;98739.47;5024685;28;20205;-60
2023/04/15 03:04:33;;;;;;;0.83;0.83;;;;;;;11.32;98.11;98736.16;5023243;28;20265;-59
2023/04/15 03:07:01;;;;;;;0.43;0.43;;;;;;;11.32;98.08;98736.16;5021992;28;20216;-60
2023/04/15 03:09:29;;;;;;;0.73;0.73;;;;;;;11.35;97.70;98733.44;5019532;28;20221;-59
2023/04/15 03:11:56;;;;;;;2.90;0.70;;;;;;;11.31;97.43;98725.97;5024146;28;20693;-59
2023/04/15 03:14:23;;;;;;;0.40;0.40;;;;;;;11.18;98.41;98723.09;5019711;28;20194;-59
2023/04/15 03:16:50;;;;;;;0.50;0.50;;;;;;;11.04;99.04;98717.72;5023481;28;20198;-60
2023/04/15 03:19:17;;;;;;;0.50;0.50;;;;;;;10.82;100.00;98720.38;5022200;28;20205;-59
2023/04/15 03:21:44;;;;;;;0.40;0.40;;;;;;;10.72;100.00;98723.38;5026130;28;20202;-59
2023/04/15 03:24:11;;;;;;;0.40;0.40;;;;;;;10.64;100.00;98730.53;5019960;28;20209;-59
2023/04/15 03:26:39;;;;;;;0.57;0.57;;;;;;;10.47;100.00;98734.63;5022593;28;20671;-59
2023/04/15 03:29:06;;;;;;;0.60;0.60;;;;;;;10.36;100.00;98744.47;5021025;28;20937;-59
2023/04/15 03:31:33;;;;;;;0.53;0.53;;;;;;;10.18;100.00;98750.31;5027072;28;20669;-59
2023/04/15 03:33:59;;;;;;;0.40;0.40;;;;;;;10.05;100.00;98763.63;5022060;28;20681;-59
2023/04/15 03:36:27;;;;;;;1.90;0.57;;;;;;;10.03;100.00;98768.78;5019894;28;20316;-60
2023/04/15 03:38:54;;;;;;;0.50;0.50;;;;;;;9.98;100.00;98780.97;5022376;28;20206;-60
2023/04/15 03:41:21;;;;;;;0.50;0.50;;;;;;;9.98;100.00;98776.63;5022981;28;20241;-59
2023/04/15 03:43:50;;;;;;;0.53;0.53;;;;;;;10.02;100.00;98762.84;5021699;28;20535;-59
2023/04/15 03:46:17;;;;;;;0.50;0.50;;;;;;;10.10;100.00;98777.91;5021076;28;20205;-60
2023/04/15 03:48:44;;;;;;;0.50;0.50;;;;;;;10.16;100.00;98794.81;5025134;28;20683;-59
2023/04/15 03:51:11;;;;;;;0.50;0.50;;;;;;;10.08;100.00;98792.50;5027220;28;20221;-59
2023/04/15 03:53:38;;;;;;;0.50;0.50;;;;;;;10.02;100.00;98798.69;5019722;28;20201;-59
2023/04/15 03:56:05;;;;;;;0.60;0.60;;;;;;;9.81;100.00;98809.72;5022824;28;20194;-59
2023/04/15 03:58:32;;;;;;;0.53;0.53;;;;;;;9.70;100.00;98803.31;5019384;28;20210;-60
2023/04/15 04:01:00;;;;;;;0.60;0.60;;;;;;;9.66;100.00;98801.78;5019763;28;20202;-60
2023/04/15 04:03:27;;;;;;;0.60;0.60;;;;;;;9.68;100.00;98798.25;5023101;28;20709;-59
2023/04/15 04:05:53;;;;;;;0.57;0.57;;;;;;;9.75;100.00;98793.75;5021464;28;20201;-59
2023/04/15 04:08:20;;;;;;;0.50;0.50;;;;;;;9.78;100.00;98804.72;5020365;28;20220;-59
2023/04/15 04:10:47;;;;;;;0.60;0.60;;;;;;;9.83;100.00;98813.06;5020351;28;20217;-59
2023/04/15 04:13:14;;;;;;;0.53;0.53;;;;;;;9.82;100.00;98815.69;5025503;28;20193;-59
2023/04/15 04:15:41;;;;;;;0.50;0.50;;;;;;;9.82;100.00;98816.50;5015116;28;20206;-59
2023/04/15 04:18:09;;;;;;;0.60;0.60;;;;;;;9.88;100.00;98807.78;5016838;28;20289;-59
2023/04/15 04:20:36;;;;;;;0.60;0.60;;;;;;;9.89;100.00;98805.16;5020162;28;20221;-59
2023/04/15 04:23:02;;;;;;;0.50;0.50;;;;;;;9.95;100.00;98812.59;5023251;28;20197;-60
2023/04/15 04:25:29;;;;;;;0.50;0.50;;;;;;;9.97;100.00;98810.00;5022482;28;20268;-60
2023/04/15 04:27:56;;;;;;;0.50;0.50;;;;;;;10.02;100.00;98813.22;5027413;28;20205;-59
2023/04/15 04:30:23;;;;;;;0.60;0.60;;;;;;;9.90;100.00;98806.84;5024604;28;20587;-59
2023/04/15 04:32:50;;;;;;;0.50;0.50;;;;;;;9.73;100.00;98816.00;5025292;28;20582;-59
2023/04/15 04:35:18;;;;;;;0.50;0.50;;;;;;;9.74;100.00;98808.28;5024939;28;20640;-60
2023/04/15 04:37:45;;;;;;;0.50;0.50;;;;;;;9.79;100.00;98821.72;5023298;28;20197;-59
2023/04/15 04:40:12;;;;;;;0.50;0.50;;;;;;;9.93;100.00;98823.81;5024923;28;20197;-60
2023/04/15 04:42:40;;;;;;;0.40;0.40;;;;;;;10.10;100.00;98831.69;5024014;28;20217;-59
2023/04/15 04:45:08;;;;;;;0.47;0.47;;;;;;;10.26;100.00;98842.22;5024871;28;20587;-59
2023/04/15 04:47:35;;;;;;;0.40;0.40;;;;;;;10.46;100.00;98835.47;5025164;28;20682;-59
2023/04/15 04:50:02;;;;;;;1.17;1.17;;;;;;;10.74;100.00;98835.22;5026146;28;20689;-60
2023/04/15 04:52:30;;;;;;;0.40;0.40;;;;;;;11.04;98.62;98839.13;5026509;28;20201;-60
2023/04/15 04:54:57;;;;;;;0.53;0.53;;;;;;;11.27;97.65;98835.59;5026169;28;20206;-59
2023/04/15 04:57:24;;;;;;;0.40;0.40;;;;;;;11.57;95.82;98838.56;5025317;28;20209;-59
2023/04/15 04:59:51;;;;;;;0.50;0.50;;;;;;;11.86;95.35;98839.91;5021251;28;20206;-59
2023/04/15 05:02:18;;;;;;;0.40;0.40;;;;;;;12.15;92.41;98847.13;5028730;28;20616;-56
2023/04/15 05:04:44;;;;;;;0.60;0.60;;;;;;;12.33;90.50;98848.06;5030054;28;20225;-57
2023/04/15 05:07:11;;;;;;;0.50;0.50;;;;;;;12.60;91.00;98839.88;5032981;28;20708;-57
2023/04/15 05:09:39;;;;;;;0.40;0.40;;;;;;;12.82;87.99;98844.00;5032644;28;20221;-57
2023/04/15 05:12:07;;;;;;;0.53;0.53;;;;;;;12.95;87.25;98837.38;5032663;28;20205;-57
2023/04/15 05:14:34;;;;;;;0.40;0.40;;;;;;;13.02;86.55;98842.13;5032859;28;20207;-59
2023/04/15 05:17:01;;;;;;;0.60;0.60;;;;;;;13.22;87.35;98854.06;5031913;28;20201;-60
2023/04/15 05:19:28;;;;;;;1.07;1.07;;;;;;;13.38;86.02;98854.13;5031425;28;20205;-60
2023/04/15 05:21:55;;;;;;;0.50;0.50;;;;;;;13.58;86.58;98852.22;5032283;28;20682;-60
2023/04/15 05:24:22;;;;;;;0.60;0.60;;;;;;;13.74;85.99;98859.16;5032853;28;20258;-60
2023/04/15 05:26:50;;;;;;;0.50;0.50;;;;;;;14.04;84.51;98860.13;5032503;28;20197;-60
2023/04/15 05:29:16;;;;;;;0.50;0.50;;;;;;;14.31;83.85;98863.84;5031581;28;20212;-60
2023/04/15 05:31:43;;;;;;;0.50;0.50;;;;;;;14.48;82.53;98856.03;5032554;28;20677;-60
2023/04/15 05:34:11;;;;;;;0.50;0.50;;;;;;;14.64;81.54;98856.00;5029490;28;20236;-60
2023/04/15 05:36:38;;;;;;;0.50;0.50;;;;;;;14.90;83.31;98867.47;5029133;28;20296;-59
2023/04/15 05:39:05;;;;;;;0.50;0.50;;;;;;;15.13;80.71;98861.84;5032163;28;20205;-60
2023/04/15 05:41:31;;;;;;;0.40;0.40;;;;;;;15.39;80.31;98871.50;5032344;28;20212;-60
2023/04/15 05:44:00;;;;;;;0.60;0.60;;;;;;;15.52;79.79;98881.97;5032393;28;20589;-59
2023/04/15 05:46:26;;;;;;;0.60;0.60;;;;;;;15.50;79.27;98858.84;5032043;28;20205;-60
2023/04/15 05:48:53;;;;;;;1.17;1.10;;;;;;;15.56;80.90;98881.72;5032174;28;20724;-61
2023/04/15 05:51:20;;;;;;;0.50;0.50;;;;;;;15.75;81.48;98895.22;5031793;28;20715;-57
2023/04/15 05:53:47;;;;;;;0.50;0.50;;;;;;;15.97;81.31;98899.09;5031602;28;20238;-57
2023/04/15 05:56:14;;;;;;;0.37;0.37;;;;;;;16.30;81.78;98897.06;5031424;28;20205;-57
2023/04/15 05:58:41;;;;;;;0.50;0.50;;;;;;;16.59;77.67;98900.47;5032331;28;20212;-58
2023/04/15 06:01:09;;;;;;;1.00;1.00;;;;;;;16.82;75.46;98896.44;5031568;28;20204;-58
2023/04/15 06:03:36;;;;;;;0.40;0.40;;;;;;;17.03;74.89;98902.81;5032006;28;20261;-58
2023/04/15 06:06:03;;;;;;;0.60;0.60;;;;;;;17.17;74.88;98900.19;5032290;28;20197;-61
2023/04/15 06:08:30;;;;;;;0.60;0.60;;;;;;;17.46;73.71;98909.47;5031761;28;20209;-59
2023/04/15 06:10:58;;;;;;;0.50;0.50;;;;;;;17.58;72.43;98915.63;5031596;28;20246;-60
2023/04/15 06:13:25;;;;;;;0.47;0.47;;;;;;;17.74;74.68;98911.91;5030186;28;20578;-63
2023/04/15 06:15:52;;;;;;;0.40;0.40;;;;;;;17.99;73.28;98915.47;5030551;28;20566;-63
2023/04/15 06:18:20;;;;;;;0.60;0.60;;;;;;;18.15;71.91;98922.09;5029815;28;20259;-64
2023/04/15 06:20:47;;;;;;;0.50;0.50;;;;;;;18.14;71.31;98925.63;5030928;28;20195;-63
2023/04/15 06:23:13;;;;;;;0.53;0.53;;;;;;;18.28;70.92;98922.09;5030583;28;20625;-63
2023/04/15 06:25:40;;;;;;;0.50;0.50;;;;;;;18.44;72.50;98930.47;5030277;28;20577;-63
2023/04/15 06:28:07;;;;;;;0.50;0.50;;;;;;;18.50;71.66;98927.47;5030906;28;20586;-63
2023/04/15 06:30:35;;;;;;;0.53;0.53;;;;;;;18.55;72.85;98925.38;5028744;28;20228;-63
2023/04/15 06:33:04;;;;;;;0.50;0.50;;;;;;;18.75;74.28;98926.56;5029690;28;20207;-63
2023/04/15 06:35:32;;;;;;;0.47;0.47;;;;;;;18.96;73.54;98932.00;5026378;28;20674;-63
2023/04/15 06:37:59;;;;;;;0.87;0.87;;;;;;;18.91;71.37;98931.50;5029185;28;20647;-63
2023/04/15 06:40:25;;;;;;;0.60;0.60;;;;;;;19.06;73.96;98933.00;5029689;28;20202;-63
2023/04/15 06:42:52;;;;;;;0.40;0.40;;;;;;;19.01;72.62;98942.88;5028139;28;20200;-63
2023/04/15 06:45:19;;;;;;;0.47;0.47;;;;;;;19.12;72.24;98935.16;5027791;28;20237;-63
2023/04/15 06:47:46;;;;;;;0.40;0.40;;;;;;;19.15;71.39;98924.56;5027889;28;20644;-63
2023/04/15 06:50:13;;;;;;;0.50;0.50;;;;;;;19.23;70.63;98928.25;5028788;28;20231;-63
2023/04/15 06:52:41;;;;;;;0.37;0.37;;;;;;;19.29;71.11;98932.16;5028134;28;20198;-63
2023/04/15 06:55:08;;;;;;;0.40;0.40;;;;;;;19.47;71.29;98923.06;5028177;28;20296;-63
2023/04/15 06:57:35;;;;;;;0.50;0.50;;;;;;;19.74;71.57;98933.97;5029170;28;20239;-63
2023/04/15 07:00:04;;;;;;;0.73;0.73;;;;;;;19.95;70.38;98941.13;5028561;28;20262;-63
2023/04/15 07:02:31;;;;;;;0.43;0.43;;;;;;;19.99;68.62;98947.75;5027482;28;20232;-63
2023/04/15 07:04:58;;;;;;;0.50;0.50;;;;;;;19.97;68.43;98952.25;5027906;28;20238;-63
2023/04/15 07:07:25;;;;;;;0.40;0.40;;;;;;;20.21;68.43;98950.38;5028928;28;20206;-63
2023/04/15 07:09:53;;;;;;;0.67;0.67;;;;;;;20.16;66.06;98949.91;5029888;28;20200;-63
2023/04/15 07:12:20;;;;;;;0.47;0.47;;;;;;;20.24;66.00;98947.53;5028146;28;20221;-63
2023/04/15 07:14:47;;;;;;;0.53;0.53;;;;;;;19.95;68.50;98948.94;5028579;28;20208;-63
2023/04/15 07:17:13;;;;;;;0.60;0.60;;;;;;;19.98;66.37;98946.09;5028932;28;20222;-63
2023/04/15 07:19:40;;;;;;;0.53;0.53;;;;;;;20.07;68.09;98950.59;5030133;28;20263;-63
2023/04/15 07:22:08;;;;;;;0.30;0.30;;;;;;;20.23;69.65;98957.13;5027583;28;20232;-63
2023/04/15 07:24:34;;;;;;;0.40;0.40;;;;;;;20.31;66.65;98965.22;5029681;28;20212;-63
2023/04/15 07:27:03;;;;;;;0.40;0.40;;;;;;;20.47;67.61;98949.22;5028696;28;20721;-63
2023/04/15 07:29:30;;;;;;;0.50;0.50;;;;;;;20.73;68.71;98960.22;5028806;28;20211;-63
2023/04/15 07:31:57;;;;;;;0.30;0.30;;;;;;;20.65;65.35;98973.84;5029099;28;20230;-63
2023/04/15 07:34:23;;;;;;;0.50;0.50;;;;;;;20.57;65.91;98971.00;5026696;28;20274;-63
2023/04/15 07:36:50;;;;;;;0.50;0.50;;;;;;;20.70;65.44;98961.28;5029061;28;20205;-63
2023/04/15 07:39:17;;;;;;;0.50;0.50;;;;;;;20.28;65.88;98964.63;5029017;28;20208;-63
2023/04/15 07:41:45;;;;;;;0.50;0.50;;;;;;;20.55;65.97;98967.69;5028985;28;20207;-63
2023/04/15 07:44:13;;;;;;;0.37;0.37;;;;;;;20.51;66.30;98945.44;5029692;28;20213;-63
2023/04/15 07:46:40;;;;;;;0.30;0.30;;;;;;;20.85;63.12;98949.66;5029050;28;20208;-63
2023/04/15 07:49:07;;;;;;;0.40;0.40;;;;;;;20.80;63.43;98957.03;5029175;28;20205;-63
2023/04/15 07:51:34;;;;;;;1.70;0.50;;;;;;;20.46;65.54;98951.94;5029242;28;20226;-63
2023/04/15 07:54:01;;;;;;;0.50;0.50;;;;;;;20.74;64.68;98957.47;5029177;28;20255;-63
2023/04/15 07:56:28;;;;;;;0.40;0.40;;;;;;;20.86;66.00;98959.13;5022308;28;20218;-64
2023/04/15 07:58:55;;;;;;;0.50;0.50;;;;;;;21.17;63.98;98954.09;5023381;28;20216;-63
2023/04/15 08:01:23;;;;;;;1.80;1.70;;;;;;;21.44;63.51;98955.31;5028079;28;20255;-62
2023/04/15 08:03:51;;;;;;;0.30;0.30;;;;;;;21.69;66.68;98964.56;5026630;28;20240;-62
2023/04/15 08:06:18;;;;;;;0.63;0.63;;;;;;;21.82;66.72;98952.16;5029520;28;20204;-63
2023/04/15 08:08:45;;;;;;;0.23;0.23;;;;;;;21.78;61.95;98948.13;5030117;28;20208;-63
2023/04/15 08:11:11;;;;;;;0.37;0.37;;;;;;;21.82;61.71;98952.16;5031701;28;20629;-63
2023/04/15 08:13:38;;;;;;;0.40;0.40;;;;;;;21.63;62.59;98912.88;5032334;28;20581;-63
2023/04/15 08:16:18;;;;;;;0.47;0.47;;;;;;;22.07;62.61;98950.94;5030425;28;20635;-63
2023/04/15 08:18:47;;;;;;;0.40;0.40;;;;;;;22.14;61.36;98949.47;5023190;28;20241;-62
2023/04/15 08:21:14;;;;;;;0.47;0.47;;;;;;;22.31;58.72;98948.03;5030132;28;20289;-62
2023/04/15 08:23:41;;;;;;;0.63;0.63;;;;;;;21.93;59.34;98949.50;5033109;28;20205;-62
2023/04/15 08:26:08;;;;;;;0.30;0.30;;;;;;;21.86;60.25;98942.28;5028530;28;20695;-63
2023/04/15 08:28:35;;;;;;;0.53;0.53;;;;;;;21.67;60.90;98945.59;5030626;28;20258;-64
2023/04/15 08:31:02;;;;;;;0.50;0.50;;;;;;;21.21;62.58;98945.09;5032343;28;20712;-63
2023/04/15 08:33:29;;;;;;;0.30;0.30;;;;;;;21.17;62.59;98943.66;5027990;28;20213;-64
2023/04/15 08:35:57;;;;;;;0.47;0.23;;;;;;;21.22;63.49;98941.53;5029729;28;20212;-63
2023/04/15 08:38:24;;;;;;;0.63;0.63;;;;;;;21.51;61.08;98939.16;5031914;28;20220;-62
2023/04/15 08:40:51;;;;;;;0.77;0.77;;;;;;;21.60;60.70;98939.22;5029966;28;20650;-63
2023/04/15 08:43:23;;;;;;;0.27;0.27;;;;;;;21.32;60.44;98929.41;5023454;28;20220;-62
2023/04/15 08:45:51;;;;;;;0.30;0.30;;;;;;;21.62;59.97;98919.06;5031198;28;20206;-63
2023/04/15 08:48:18;;;;;;;0.40;0.40;;;;;;;21.58;58.35;98943.75;5026378;28;20303;-63
2023/04/15 08:50:46;;;;;;;0.43;0.43;;;;;;;21.32;59.74;98947.66;5029246;28;20213;-63
2023/04/15 08:53:15;;;;;;;0.63;0.40;;;;;;;21.32;60.06;98942.44;5026539;28;20194;-59
2023/04/15 08:55:45;;;;;;;0.30;0.30;;;;;;;21.14;60.36;98949.13;5030295;28;20197;-59
2023/04/15 08:58:13;;;;;;;0.40;0.40;;;;;;;21.14;60.53;98938.72;5031866;28;20208;-59
2023/04/15 09:00:40;;;;;;;0.20;0.20;;;;;;;21.06;59.87;98917.63;5029327;28;20779;-58
2023/04/15 09:03:07;;;;;;;0.40;0.40;;;;;;;21.62;60.80;98942.53;5029788;28;20275;-59
2023/04/15 09:05:37;;;;;;;0.40;0.40;;;;;;;22.00;57.66;98949.84;5020767;28;20206;-59
2023/04/15 09:08:05;;;;;;;0.30;0.30;;;;;;;21.86;54.50;98937.91;5026313;28;20209;-59
2023/04/15 09:10:33;;;;;;;0.30;0.30;;;;;;;22.10;54.68;98939.44;5019330;28;20232;-58
2023/04/15 09:13:01;;;;;;;0.30;0.30;;;;;;;22.26;52.34;98934.56;5020930;28;20622;-59
2023/04/15 09:15:29;;;;;;;0.30;0.30;;;;;;;22.41;51.63;98938.47;5025635;28;20562;-59
2023/04/15 09:17:56;;;;;;;0.37;0.37;;;;;;;22.69;53.66;98940.38;5020177;28;20311;-59
2023/04/15 09:20:23;;;;;;;0.27;0.27;;;;;;;22.73;53.06;98931.31;5026579;28;20286;-59
2023/04/15 09:22:50;;;;;;;0.50;0.50;;;;;;;22.41;51.97;98925.41;5024529;28;20670;-58
2023/04/15 09:25:28;;;;;;;0.30;0.30;;;;;;;22.30;53.17;98922.88;5022199;28;20209;-57
2023/04/15 09:27:57;;;;;;;0.40;0.40;;;;;;;22.49;52.18;98925.56;5018293;28;20290;-58
2023/04/15 09:30:25;;;;;;;0.30;0.30;;;;;;;22.55;51.25;98927.66;5022120;28;20825;-58
2023/04/15 09:32:53;;;;;;;0.37;0.37;;;;;;;22.40;51.55;98921.97;5021603;28;20225;-58
2023/04/15 09:35:21;;;;;;;0.40;0.40;;;;;;;22.28;50.60;98922.19;5020622;28;20264;-58
2023/04/15 09:37:47;;;;;;;0.33;0.33;;;;;;;22.12;50.70;98924.47;5023821;28;20197;-58
2023/04/15 09:40:15;;;;;;;0.50;0.50;;;;;;;21.86;53.17;98910.97;5021389;28;20197;-58
2023/04/15 09:42:58;;;;;;;0.30;0.30;;;;;;;22.06;52.98;98906.72;5020027;28;20252;-58
2023/04/15 09:45:25;;;;;;;0.30;0.30;;;;;;;21.79;53.91;98918.47;5022767;28;20442;-57
2023/04/15 09:47:52;;;;;;;0.30;0.30;;;;;;;21.24;54.81;98908.34;5023953;28;20647;-58
2023/04/15 09:50:19;;;;;;;0.50;0.50;;;;;;;20.75;56.85;98912.25;5018833;28;20263;-58
2023/04/15 09:52:47;;;;;;;0.40;0.40;;;;;;;20.57;58.02;98903.31;5027698;28;20763;-58
2023/04/15 09:55:15;;;;;;;0.40;0.40;;;;;;;20.62;58.44;98901.16;5026130;28;20586;-58
2023/04/15 09:57:43;;;;;;;0.40;0.40;;;;;;;20.65;56.85;98900.91;5026208;28;20205;-58
2023/04/15 10:00:12;;;;;;;0.70;0.70;;;;;;;20.47;55.66;98875.50;5022851;28;20202;-58
2023/04/15 10:02:40;;;;;;;0.30;0.30;;;;;;;20.97;54.27;98902.75;5025376;28;20211;-58
2023/04/15 10:05:10;;;;;;;0.47;0.47;;;;;;;20.94;50.79;98902.03;5017718;28;20675;-58
2023/04/15 10:07:39;;;;;;;0.40;0.40;;;;;;;21.10;50.65;98898.22;5018134;28;20217;-58
2023/04/15 10:10:08;;;;;;;0.50;0.50;;;;;;;21.11;49.76;98902.47;5019349;28;20205;-58
2023/04/15 10:12:37;;;;;;;0.30;0.30;;;;;;;21.24;48.94;98903.13;5025485;28;20752;-58
2023/04/15 10:15:05;;;;;;;0.33;0.33;;;;;;;21.17;48.49;98896.75;5022495;28;20209;-58
2023/04/15 10:17:36;;;;;;;0.40;0.40;;;;;;;21.15;47.50;98893.47;5019700;28;20600;-58
2023/04/15 10:20:05;;;;;;;0.30;0.30;;;;;;;21.52;49.40;98886.06;5025496;28;20213;-58
2023/04/15 10:22:32;;;;;;;0.30;0.30;;;;;;;21.89;47.40;98898.53;5015960;28;20237;-57
2023/04/15 10:24:59;;;;;;;0.33;0.33;;;;;;;22.24;46.03;98884.25;5022425;28;20209;-57
2023/04/15 10:27:27;;;;;;;0.40;0.40;;;;;;;22.22;42.80;98873.94;5020331;28;20236;-58
2023/04/15 10:29:54;;;;;;;0.30;0.30;;;;;;;22.36;40.01;98872.72;5025564;28;20236;-60
2023/04/15 10:32:23;;;;;;;0.40;0.40;;;;;;;22.27;38.82;98858.69;5017500;28;20280;-60
2023/04/15 10:34:52;;;;;;;0.30;0.30;;;;;;;22.39;42.43;98872.50;5017967;28;20259;-59
2023/04/15 10:37:34;;;;;;;0.23;0.23;;;;;;;22.70;47.53;98863.63;5026303;28;20677;-58
2023/04/15 10:40:01;;;;;;;0.40;0.40;;;;;;;22.84;41.54;98860.63;5018864;28;20198;-58
2023/04/15 10:42:34;;;;;;;0.30;0.30;;;;;;;22.77;44.13;98861.31;5020304;28;20678;-58
2023/04/15 10:45:01;;;;;;;0.23;0.23;;;;;;;22.62;45.63;98853.00;5021239;28;20551;-58
2023/04/15 10:47:28;;;;;;;0.30;0.30;;;;;;;22.24;44.90;98858.97;5020490;28;20252;-59
2023/04/15 10:50:01;;;;;;;0.30;0.30;;;;;;;22.43;44.42;98852.97;5021693;28;20206;-59
2023/04/15 10:52:29;;;;;;;0.40;0.40;;;;;;;22.60;44.82;98849.69;5015038;28;20237;-59
2023/04/15 10:55:04;;;;;;;0.30;0.30;;;;;;;22.62;47.27;98846.97;5023247;28;20697;-58
2023/04/15 10:57:35;;;;;;;0.30;0.30;;;;;;;22.36;46.54;98849.22;5018403;28;20621;-59
2023/04/15 11:00:11;;;;;;;0.40;0.40;;;;;;;22.00;44.60;98844.59;5022652;28;20649;-59
2023/04/15 11:02:42;;;;;;;0.30;0.30;;;;;;;21.97;45.79;98849.09;5023446;28;20636;-58
2023/04/15 11:05:11;;;;;;;0.40;0.40;;;;;;;21.80;46.28;98839.25;5029570;28;20233;-59
2023/04/15 11:07:48;;;;;;;0.37;0.37;;;;;;;21.71;46.27;98847.84;5030500;28;20689;-59
2023/04/15 11:10:54;;;;;;;0.43;0.43;;;;;;;21.81;45.22;98840.09;5026471;28;20203;-59
2023/04/15 11:13:28;;;;;;;0.30;0.30;;;;;;;22.04;44.91;98836.34;5026263;28;20213;-58
2023/04/15 11:16:00;;;;;;;0.50;0.50;;;;;;;21.95;42.34;98837.16;5029769;28;20284;-59
2023/04/15 11:18:29;;;;;;;0.37;0.37;;;;;;;21.95;41.80;98842.34;5028858;28;21049;-59
2023/04/15 11:21:00;;;;;;;0.40;0.40;;;;;;;21.79;44.08;98840.19;5030034;28;20814;-59
2023/04/15 11:23:32;;;;;;;0.40;0.40;;;;;;;21.84;42.27;98838.03;5027505;28;20197;-59
2023/04/15 11:26:00;;;;;;;0.50;0.50;;;;;;;21.90;44.81;98840.16;5023776;28;20200;-58
2023/04/15 11:28:28;;;;;;;0.50;0.50;;;;;;;21.97;46.15;98830.81;5025122;28;20279;-58
2023/04/15 11:30:55;;;;;;;0.30;0.30;;;;;;;22.08;47.15;98822.09;5028087;28;20210;-59
2023/04/15 11:33:23;;;;;;;0.30;0.30;;;;;;;22.26;46.44;98824.91;5028939;28;20311;-58